createdAt,value
2024-04-24T00:00:33.380Z,52.12
2024-04-24T00:02:55.830Z,52.15
2024-04-24T00:05:03.008Z,52.38
2024-04-24T00:07:05.593Z,52.38
2024-04-24T00:09:09.477Z,52.38
2024-04-24T00:11:24.829Z,52.40
2024-04-24T00:13:27.310Z,52.70
2024-04-24T00:15:29.988Z,52.74
2024-04-24T00:17:32.622Z,52.72
2024-04-24T00:19:35.818Z,52.66
2024-04-24T00:21:38.206Z,52.69
2024-04-24T00:23:40.719Z,52.51
2024-04-24T00:25:43.183Z,52.74
2024-04-24T00:27:45.675Z,52.79
2024-04-24T00:29:48.177Z,52.84
2024-04-24T00:31:51.710Z,53.04
2024-04-24T00:33:54.306Z,52.96
2024-04-24T00:35:56.766Z,53.02
2024-04-24T00:37:59.282Z,53.40
2024-04-24T00:40:01.812Z,53.52
2024-04-24T00:42:04.324Z,53.47
2024-04-24T00:44:06.912Z,53.52
2024-04-24T00:46:10.634Z,53.58
2024-04-24T00:48:13.847Z,53.75
2024-04-24T00:50:17.228Z,53.76
2024-04-24T00:52:19.843Z,53.80
2024-04-24T00:54:22.238Z,53.75
2024-04-24T00:56:25.244Z,53.78
2024-04-24T00:58:27.952Z,53.94
2024-04-24T01:00:30.549Z,53.86
2024-04-24T01:02:32.957Z,54.29
2024-04-24T01:04:35.490Z,54.43
2024-04-24T01:06:37.915Z,54.79
2024-04-24T01:08:40.663Z,55.05
2024-04-24T01:10:43.224Z,55.12
2024-04-24T01:12:46.395Z,55.30
2024-04-24T01:14:48.882Z,55.30
2024-04-24T01:16:51.802Z,55.46
2024-04-24T01:19:02.542Z,55.56
2024-04-24T01:21:08.082Z,55.50
2024-04-24T01:24:04.604Z,55.40
2024-04-24T01:26:31.560Z,55.46
2024-04-24T01:28:48.093Z,55.54
2024-04-24T01:30:50.622Z,55.49
2024-04-24T01:32:53.101Z,55.73
2024-04-24T01:34:55.850Z,55.68
2024-04-24T01:36:58.624Z,55.74
2024-04-24T01:39:01.212Z,55.94
2024-04-24T01:41:04.037Z,56.16
2024-04-24T01:43:06.574Z,56.43
2024-04-24T01:45:09.629Z,56.61
2024-04-24T01:47:12.439Z,56.87
2024-04-24T01:49:14.967Z,56.89
2024-04-24T01:51:17.615Z,56.97
2024-04-24T01:53:20.442Z,56.99
2024-04-24T01:55:22.939Z,57.15
2024-04-24T01:57:25.397Z,57.21
2024-04-24T01:59:27.783Z,57.17
2024-04-24T02:01:30.358Z,57.32
2024-04-24T02:03:32.829Z,57.42
2024-04-24T02:05:35.296Z,57.32
2024-04-24T02:07:37.867Z,57.51
2024-04-24T02:09:40.229Z,57.52
2024-04-24T02:11:42.698Z,57.51
2024-04-24T02:13:45.993Z,57.63
2024-04-24T02:15:48.476Z,57.45
2024-04-24T02:17:51.094Z,57.52
2024-04-24T02:19:53.706Z,57.69
2024-04-24T02:21:56.157Z,57.66
2024-04-24T02:24:01.135Z,57.60
2024-04-24T02:26:10.041Z,57.61
2024-04-24T02:28:12.661Z,57.77
2024-04-24T02:30:15.136Z,57.69
2024-04-24T02:32:17.601Z,57.66
2024-04-24T02:34:20.119Z,57.78
2024-04-24T02:36:22.544Z,57.82
2024-04-24T02:38:25.114Z,57.91
2024-04-24T02:40:27.522Z,57.79
2024-04-24T02:42:29.924Z,57.99
2024-04-24T02:44:32.333Z,58.00
2024-04-24T02:46:34.713Z,58.09
2024-04-24T02:48:37.432Z,58.15
2024-04-24T02:50:40.260Z,58.04
2024-04-24T02:52:42.794Z,58.07
2024-04-24T02:54:45.227Z,58.16
2024-04-24T02:56:50.711Z,58.23
2024-04-24T02:58:54.590Z,58.20
2024-04-24T03:00:57.129Z,58.16
2024-04-24T03:02:59.915Z,58.20
2024-04-24T03:05:02.556Z,58.19
2024-04-24T03:07:05.091Z,58.28
2024-04-24T03:09:07.584Z,58.21
2024-04-24T03:11:10.111Z,58.20
2024-04-24T03:13:12.530Z,58.17
2024-04-24T03:15:15.029Z,58.28
2024-04-24T03:17:17.767Z,58.13
2024-04-24T03:19:20.485Z,58.26
2024-04-24T03:21:24.362Z,58.27
2024-04-24T03:23:27.022Z,58.16
2024-04-24T03:25:29.489Z,58.00
2024-04-24T03:27:33.476Z,57.85
2024-04-24T03:29:36.000Z,57.50
2024-04-24T03:31:38.606Z,57.44
2024-04-24T03:33:41.043Z,57.32
2024-04-24T03:35:43.521Z,57.45
2024-04-24T03:37:46.574Z,57.56
2024-04-24T03:39:49.269Z,57.63
2024-04-24T03:41:51.677Z,57.68
2024-04-24T03:43:54.807Z,57.79
2024-04-24T03:45:57.913Z,57.67
2024-04-24T03:48:00.589Z,57.86
2024-04-24T03:50:03.414Z,57.78
2024-04-24T03:52:06.072Z,57.78
2024-04-24T03:54:10.995Z,57.97
2024-04-24T03:56:13.484Z,58.04
2024-04-24T03:58:16.510Z,57.92
2024-04-24T04:00:19.051Z,57.98
2024-04-24T04:02:21.550Z,57.87
2024-04-24T04:04:24.093Z,57.91
2024-04-24T04:06:26.712Z,57.93
2024-04-24T04:08:30.875Z,57.85
2024-04-24T04:10:33.725Z,57.89
2024-04-24T04:12:36.113Z,58.25
2024-04-24T04:14:38.542Z,58.19
2024-04-24T04:16:41.019Z,58.43
2024-04-24T04:18:43.400Z,58.52
2024-04-24T04:20:46.093Z,58.59
2024-04-24T04:22:48.630Z,58.59
2024-04-24T04:24:51.212Z,58.65
2024-04-24T04:26:53.606Z,58.43
2024-04-24T04:28:56.144Z,58.65
2024-04-24T04:30:58.705Z,58.45
2024-04-24T04:33:01.235Z,58.51
2024-04-24T04:35:03.783Z,58.19
2024-04-24T04:37:06.186Z,58.07
2024-04-24T04:39:08.690Z,58.19
2024-04-24T04:41:11.146Z,58.14
2024-04-24T04:43:13.626Z,58.00
2024-04-24T04:45:16.087Z,58.18
2024-04-24T04:47:18.561Z,58.25
2024-04-24T04:49:21.091Z,58.08
2024-04-24T04:51:23.612Z,57.86
2024-04-24T04:53:26.143Z,57.86
2024-04-24T04:55:28.624Z,57.75
2024-04-24T04:57:31.120Z,57.63
2024-04-24T04:59:33.815Z,57.64
2024-04-24T05:01:36.415Z,57.68
2024-04-24T05:03:42.163Z,57.57
2024-04-24T05:05:45.119Z,57.75
2024-04-24T05:07:47.618Z,57.69
2024-04-24T05:09:50.055Z,57.72
2024-04-24T05:11:52.563Z,57.90
2024-04-24T05:13:55.228Z,57.98
2024-04-24T05:15:57.705Z,58.48
2024-04-24T05:18:01.351Z,58.62
2024-04-24T05:20:04.286Z,58.56
2024-04-24T05:22:07.067Z,58.70
2024-04-24T05:24:09.558Z,58.88
2024-04-24T05:26:30.366Z,59.13
2024-04-24T05:28:53.185Z,59.38
2024-04-24T05:30:55.640Z,59.39
2024-04-24T05:32:58.181Z,59.24
2024-04-24T05:35:01.177Z,58.96
2024-04-24T05:37:04.160Z,58.90
2024-04-24T05:39:06.632Z,58.72
2024-04-24T05:41:09.034Z,58.69
2024-04-24T05:43:13.222Z,58.52
2024-04-24T05:45:17.166Z,58.73
2024-04-24T05:47:20.363Z,58.62
2024-04-24T05:49:22.801Z,58.56
2024-04-24T05:51:25.140Z,58.54
2024-04-24T05:53:27.556Z,58.41
2024-04-24T05:55:29.958Z,58.08
2024-04-24T05:57:32.415Z,57.75
2024-04-24T05:59:34.944Z,57.71
2024-04-24T06:01:37.433Z,57.82
2024-04-24T06:03:39.775Z,57.73
2024-04-24T06:05:42.186Z,57.47
2024-04-24T06:07:45.268Z,57.39
2024-04-24T06:09:47.666Z,57.52
2024-04-24T06:11:50.223Z,57.30
2024-04-24T06:13:52.721Z,57.39
2024-04-24T06:15:55.165Z,57.29
2024-04-24T06:17:58.240Z,57.31
2024-04-24T06:20:00.811Z,57.43
2024-04-24T06:22:04.897Z,57.30
2024-04-24T06:24:10.516Z,57.32
2024-04-24T06:26:14.543Z,57.23
2024-04-24T06:28:17.037Z,57.26
2024-04-24T06:30:19.535Z,57.28
2024-04-24T06:32:22.193Z,57.41
2024-04-24T06:34:24.660Z,57.40
2024-04-24T06:36:28.006Z,57.67
2024-04-24T06:38:31.282Z,57.69
2024-04-24T06:40:33.731Z,57.51
2024-04-24T06:42:36.208Z,57.54
2024-04-24T06:44:38.711Z,57.62
2024-04-24T06:46:41.532Z,57.76
2024-04-24T06:48:43.999Z,57.82
2024-04-24T06:50:46.418Z,57.81
2024-04-24T06:52:49.044Z,57.89
2024-04-24T06:54:51.648Z,57.97
2024-04-24T06:56:54.351Z,58.00
2024-04-24T06:58:57.332Z,57.91
2024-04-24T07:01:02.498Z,58.09
2024-04-24T07:03:05.202Z,58.09
2024-04-24T07:05:07.922Z,58.29
2024-04-24T07:07:10.441Z,58.20
2024-04-24T07:09:12.964Z,58.37
2024-04-24T07:11:15.424Z,58.24
2024-04-24T07:13:18.613Z,58.11
2024-04-24T07:15:21.031Z,58.04
2024-04-24T07:17:23.938Z,57.95
2024-04-24T07:19:26.993Z,58.04
2024-04-24T07:21:29.478Z,58.15
2024-04-24T07:23:31.978Z,58.16
2024-04-24T07:25:35.299Z,58.28
2024-04-24T07:27:37.806Z,58.50
2024-04-24T07:29:40.236Z,58.46
2024-04-24T07:31:42.901Z,58.55
2024-04-24T07:33:45.427Z,58.59
2024-04-24T07:35:48.346Z,58.49
2024-04-24T07:37:53.017Z,58.54
2024-04-24T07:39:55.687Z,58.63
2024-04-24T07:41:58.055Z,58.51
2024-04-24T07:44:00.537Z,58.62
2024-04-24T07:46:04.179Z,58.67
2024-04-24T07:48:07.374Z,58.57
2024-04-24T07:50:09.943Z,58.49
2024-04-24T07:52:12.545Z,58.28
2024-04-24T07:54:15.036Z,58.46
2024-04-24T07:56:17.612Z,58.38
2024-04-24T07:58:20.352Z,58.73
2024-04-24T08:00:23.021Z,58.74
2024-04-24T08:02:25.665Z,58.58
2024-04-24T08:04:28.808Z,58.39
2024-04-24T08:06:31.249Z,58.56
2024-04-24T08:08:37.813Z,58.91
2024-04-24T08:10:40.319Z,59.01
2024-04-24T08:12:42.772Z,59.19
2024-04-24T08:14:45.112Z,59.53
2024-04-24T08:16:47.553Z,59.73
2024-04-24T08:18:51.868Z,60.05
2024-04-24T08:20:55.190Z,60.37
2024-04-24T08:22:57.798Z,60.57
2024-04-24T08:25:00.311Z,60.72
2024-04-24T08:27:03.323Z,60.75
2024-04-24T08:29:05.735Z,60.78
2024-04-24T08:31:09.310Z,60.79
2024-04-24T08:33:12.011Z,60.83
2024-04-24T08:35:14.512Z,60.95
2024-04-24T08:37:17.017Z,60.91
2024-04-24T08:39:19.402Z,60.90
2024-04-24T08:41:22.350Z,60.67
2024-04-24T08:43:24.854Z,60.97
2024-04-24T08:45:28.084Z,61.22
2024-04-24T08:47:31.881Z,61.14
2024-04-24T08:49:36.547Z,61.19
2024-04-24T08:51:42.380Z,61.34
2024-04-24T08:54:02.287Z,61.37
2024-04-24T08:56:06.235Z,61.55
2024-04-24T08:58:10.033Z,61.91
2024-04-24T09:00:14.018Z,62.22
2024-04-24T09:02:20.310Z,62.36
2024-04-24T09:04:23.897Z,62.00
2024-04-24T09:06:29.164Z,62.08
2024-04-24T09:08:35.668Z,62.19
2024-04-24T09:10:39.066Z,61.96
2024-04-24T09:12:41.910Z,62.29
2024-04-24T09:14:45.783Z,62.34
2024-04-24T09:16:48.946Z,62.36
2024-04-24T09:19:02.187Z,62.17
2024-04-24T09:21:05.930Z,61.88
2024-04-24T09:23:12.907Z,61.86
2024-04-24T09:25:15.905Z,61.74
2024-04-24T09:27:18.490Z,61.85
2024-04-24T09:29:20.923Z,62.03
2024-04-24T09:31:24.032Z,62.20
2024-04-24T09:33:26.730Z,62.13
2024-04-24T09:35:29.598Z,62.03
2024-04-24T09:37:32.513Z,62.42
2024-04-24T09:39:36.364Z,62.62
2024-04-24T09:41:43.204Z,62.57
2024-04-24T09:43:46.719Z,62.30
2024-04-24T09:45:49.580Z,62.23
2024-04-24T09:47:52.075Z,62.17
2024-04-24T09:49:55.774Z,62.07
2024-04-24T09:52:01.130Z,61.91
2024-04-24T09:54:03.621Z,61.87
2024-04-24T09:56:21.450Z,61.84
2024-04-24T09:58:27.008Z,61.65
2024-04-24T10:00:32.626Z,61.57
2024-04-24T10:02:40.473Z,61.58
2024-04-24T10:04:48.629Z,61.64
2024-04-24T10:06:52.690Z,61.70
2024-04-24T10:08:57.753Z,61.95
2024-04-24T10:11:04.068Z,61.95
2024-04-24T10:13:07.675Z,61.95
2024-04-24T10:15:12.281Z,62.08
2024-04-24T10:17:17.284Z,61.23
2024-04-24T10:19:22.069Z,61.03
2024-04-24T10:21:24.787Z,60.84
2024-04-24T10:23:28.664Z,60.57
2024-04-24T10:25:33.504Z,60.16
2024-04-24T10:27:40.323Z,59.35
2024-04-24T10:29:45.821Z,58.78
2024-04-24T10:31:49.536Z,58.80
2024-04-24T10:33:52.462Z,58.71
2024-04-24T10:35:56.797Z,58.68
2024-04-24T10:37:59.359Z,58.39
2024-04-24T10:40:01.899Z,57.97
2024-04-24T10:42:04.478Z,58.04
2024-04-24T10:44:08.818Z,58.00
2024-04-24T10:46:22.483Z,58.06
2024-04-24T10:48:43.426Z,58.00
2024-04-24T10:50:50.925Z,57.79
2024-04-24T10:52:55.677Z,57.71
2024-04-24T10:55:10.683Z,57.37
2024-04-24T10:57:15.107Z,57.30
2024-04-24T10:59:18.012Z,57.30
2024-04-24T11:01:29.291Z,56.90
2024-04-24T11:03:38.080Z,56.55
2024-04-24T11:05:43.211Z,56.05
2024-04-24T11:07:57.825Z,55.38
2024-04-24T11:10:00.379Z,55.59
2024-04-24T11:12:05.442Z,55.63
2024-04-24T11:14:11.055Z,55.35
2024-04-24T11:16:15.983Z,55.05
2024-04-24T11:18:18.579Z,54.56
2024-04-24T11:20:23.213Z,54.44
2024-04-24T11:22:29.443Z,54.48
2024-04-24T11:24:32.394Z,54.35
2024-04-24T11:26:36.709Z,54.36
2024-04-24T11:28:39.458Z,54.54
2024-04-24T11:30:44.240Z,54.63
2024-04-24T11:32:52.571Z,54.67
2024-04-24T11:34:55.299Z,54.55
2024-04-24T11:36:57.957Z,54.25
2024-04-24T11:39:01.264Z,54.44
2024-04-24T11:41:04.249Z,54.25
2024-04-24T11:43:07.030Z,54.33
2024-04-24T11:45:09.704Z,54.41
2024-04-24T11:47:12.310Z,54.04
2024-04-24T11:49:18.989Z,54.08
2024-04-24T11:51:23.459Z,53.99
2024-04-24T11:53:26.118Z,53.87
2024-04-24T11:55:28.690Z,53.75
2024-04-24T11:57:38.005Z,53.42
2024-04-24T11:59:49.683Z,53.51
2024-04-24T12:01:52.631Z,53.22
2024-04-24T12:04:02.199Z,53.18
2024-04-24T12:06:06.060Z,53.17
2024-04-24T12:08:08.933Z,53.49
2024-04-24T12:10:11.584Z,53.66
2024-04-24T12:12:14.440Z,54.06
2024-04-24T12:14:18.074Z,55.29
2024-04-24T12:16:21.168Z,56.41
2024-04-24T12:18:24.119Z,57.58
2024-04-24T12:20:26.890Z,58.05
2024-04-24T12:22:29.392Z,58.90
2024-04-24T12:24:33.811Z,59.36
2024-04-24T12:26:36.232Z,59.99
2024-04-24T12:28:38.690Z,60.05
2024-04-24T12:30:41.552Z,60.25
2024-04-24T12:32:44.518Z,60.41
2024-04-24T12:34:51.456Z,60.74
2024-04-24T12:36:57.574Z,60.51
2024-04-24T12:39:00.033Z,60.72
2024-04-24T12:41:02.852Z,60.47
2024-04-24T12:43:05.301Z,60.48
2024-04-24T12:45:09.582Z,60.15
2024-04-24T12:47:13.633Z,59.76
2024-04-24T12:49:16.084Z,59.75
2024-04-24T12:51:18.513Z,59.25
2024-04-24T12:53:21.021Z,58.49
2024-04-24T12:55:23.550Z,58.59
2024-04-24T12:57:26.047Z,58.69
2024-04-24T12:59:28.626Z,58.67
2024-04-24T13:01:31.195Z,58.69
2024-04-24T13:03:34.447Z,58.71
2024-04-24T13:05:37.177Z,58.70
2024-04-24T13:07:43.379Z,58.60
2024-04-24T13:09:46.638Z,58.49
2024-04-24T13:11:49.432Z,58.64
2024-04-24T13:13:51.909Z,58.51
2024-04-24T13:15:54.387Z,58.62
2024-04-24T13:17:57.291Z,58.39
2024-04-24T13:20:02.219Z,58.16
2024-04-24T13:22:07.885Z,58.34
2024-04-24T13:24:11.810Z,57.96
2024-04-24T13:26:14.281Z,57.81
2024-04-24T13:28:16.956Z,57.77
2024-04-24T13:30:19.995Z,57.97
2024-04-24T13:32:22.684Z,57.80
2024-04-24T13:34:25.430Z,57.59
2024-04-24T13:36:30.054Z,57.40
2024-04-24T13:38:35.231Z,57.56
2024-04-24T13:40:37.983Z,57.03
2024-04-24T13:42:40.685Z,56.85
2024-04-24T13:44:44.482Z,56.86
2024-04-24T13:46:47.178Z,56.81
2024-04-24T13:48:49.887Z,56.64
2024-04-24T13:50:52.541Z,56.48
2024-04-24T13:52:55.183Z,56.51
2024-04-24T13:54:57.704Z,56.37
2024-04-24T13:57:00.835Z,56.46
2024-04-24T13:59:03.476Z,56.30
2024-04-24T14:01:07.919Z,56.35
2024-04-24T14:03:10.653Z,56.08
2024-04-24T14:05:13.644Z,55.99
2024-04-24T14:07:17.629Z,55.76
2024-04-24T14:09:21.962Z,55.77
2024-04-24T14:11:26.465Z,55.70
2024-04-24T14:13:29.143Z,55.80
2024-04-24T14:15:31.613Z,55.86
2024-04-24T14:17:36.906Z,55.86
2024-04-24T14:19:39.856Z,55.99
2024-04-24T14:21:43.180Z,56.22
2024-04-24T14:23:45.939Z,56.17
2024-04-24T14:25:48.955Z,56.36
2024-04-24T14:27:51.667Z,56.66
2024-04-24T14:29:54.726Z,56.66
2024-04-24T14:31:57.652Z,56.88
2024-04-24T14:34:00.211Z,57.06
2024-04-24T14:36:03.131Z,57.16
2024-04-24T14:38:05.764Z,57.36
2024-04-24T14:40:08.822Z,57.79
2024-04-24T14:42:11.222Z,57.68
2024-04-24T14:44:13.808Z,58.05
2024-04-24T14:46:16.325Z,58.57
2024-04-24T14:48:19.076Z,58.74
2024-04-24T14:50:21.617Z,59.11
2024-04-24T14:52:24.257Z,59.07
2024-04-24T14:54:27.280Z,59.09
2024-04-24T14:56:30.189Z,58.91
2024-04-24T14:58:32.766Z,59.05
2024-04-24T15:00:35.127Z,59.20
2024-04-24T15:02:37.774Z,59.04
2024-04-24T15:04:40.344Z,58.34
2024-04-24T15:06:59.577Z,58.00
2024-04-24T15:09:02.213Z,58.08
2024-04-24T15:11:05.056Z,58.21
2024-04-24T15:13:07.712Z,57.98
2024-04-24T15:15:10.388Z,57.85
2024-04-24T15:17:13.245Z,57.76
2024-04-24T15:19:16.082Z,57.86
2024-04-24T15:21:18.655Z,57.37
2024-04-24T15:23:21.690Z,56.66
2024-04-24T15:25:25.191Z,55.95
2024-04-24T15:27:28.033Z,55.80
2024-04-24T15:29:30.629Z,55.54
2024-04-24T15:31:33.175Z,54.92
2024-04-24T15:33:38.847Z,54.94
2024-04-24T15:35:45.633Z,54.77
2024-04-24T15:37:48.122Z,54.79
2024-04-24T15:39:50.683Z,54.53
2024-04-24T15:41:56.034Z,54.83
2024-04-24T15:43:58.481Z,54.24
2024-04-24T15:46:00.949Z,54.40
2024-04-24T15:48:03.655Z,54.41
2024-04-24T15:50:06.674Z,54.63
2024-04-24T15:52:10.304Z,54.93
2024-04-24T15:54:12.890Z,55.01
2024-04-24T15:56:18.594Z,54.73
2024-04-24T15:58:22.638Z,54.03
2024-04-24T16:00:28.524Z,54.10
2024-04-24T16:02:31.139Z,53.71
2024-04-24T16:04:34.282Z,53.67
2024-04-24T16:06:36.960Z,53.96
2024-04-24T16:08:39.631Z,53.53
2024-04-24T16:10:42.520Z,52.95
2024-04-24T16:12:45.332Z,52.21
2024-04-24T16:14:47.793Z,51.79
2024-04-24T16:16:50.309Z,51.56
2024-04-24T16:18:52.895Z,50.89
2024-04-24T16:20:57.196Z,50.18
2024-04-24T16:23:00.781Z,50.11
2024-04-24T16:25:03.382Z,50.42
2024-04-24T16:27:07.478Z,50.64
2024-04-24T16:29:10.773Z,50.59
2024-04-24T16:31:13.481Z,50.70
2024-04-24T16:33:16.278Z,50.74
2024-04-24T16:35:19.579Z,50.75
2024-04-24T16:37:22.103Z,50.87
2024-04-24T16:39:25.225Z,50.97
2024-04-24T16:41:28.971Z,51.07
2024-04-24T16:43:34.946Z,51.23
2024-04-24T16:45:38.719Z,51.22
2024-04-24T16:47:42.546Z,51.42
2024-04-24T16:49:46.434Z,51.07
2024-04-24T16:51:51.098Z,50.99
2024-04-24T16:53:55.822Z,51.23
2024-04-24T16:55:59.651Z,51.22
2024-04-24T16:58:03.672Z,51.25
2024-04-24T17:00:08.826Z,51.39
2024-04-24T17:02:16.727Z,51.34
2024-04-24T17:04:20.625Z,51.45
2024-04-24T17:06:28.865Z,51.67
2024-04-24T17:08:32.969Z,50.60
2024-04-24T17:10:38.869Z,50.56
2024-04-24T17:12:42.880Z,50.11
2024-04-24T17:14:48.961Z,49.37
2024-04-24T17:16:51.392Z,48.60
2024-04-24T17:18:58.310Z,47.62
2024-04-24T17:21:00.970Z,46.65
2024-04-24T17:23:05.047Z,45.69
2024-04-24T17:25:08.917Z,45.21
2024-04-24T17:27:14.328Z,45.59
2024-04-24T17:29:19.472Z,45.76
2024-04-24T17:31:24.856Z,45.53
2024-04-24T17:33:29.187Z,45.05
2024-04-24T17:35:32.758Z,44.50
2024-04-24T17:37:36.455Z,44.38
2024-04-24T17:39:39.226Z,44.07
2024-04-24T17:41:43.405Z,43.66
2024-04-24T17:43:45.859Z,43.07
2024-04-24T17:45:52.086Z,43.09
2024-04-24T17:47:54.710Z,44.03
2024-04-24T17:49:57.245Z,44.46
2024-04-24T17:51:59.818Z,44.85
2024-04-24T17:54:02.996Z,45.46
2024-04-24T17:56:05.589Z,45.89
2024-04-24T17:58:09.597Z,46.65
2024-04-24T18:00:13.718Z,47.26
2024-04-24T18:02:24.038Z,47.71
2024-04-24T18:04:31.328Z,48.11
2024-04-24T18:06:36.444Z,48.32
2024-04-24T18:08:41.587Z,49.01
2024-04-24T18:10:47.402Z,49.20
2024-04-24T18:12:53.433Z,49.60
2024-04-24T18:15:00.616Z,50.03
2024-04-24T18:17:04.862Z,50.41
2024-04-24T18:19:09.411Z,50.90
2024-04-24T18:21:13.914Z,51.17
2024-04-24T18:23:18.512Z,51.30
2024-04-24T18:25:22.299Z,51.78
2024-04-24T18:27:27.264Z,51.94
2024-04-24T18:29:32.398Z,52.14
2024-04-24T18:31:43.177Z,52.36
2024-04-24T18:33:49.458Z,52.79
2024-04-24T18:35:55.219Z,53.02
2024-04-24T18:37:57.854Z,53.19
2024-04-24T18:40:07.841Z,53.36
2024-04-24T18:42:14.291Z,53.41
2024-04-24T18:44:20.662Z,53.65
2024-04-24T18:46:24.637Z,53.88
2024-04-24T18:48:31.461Z,54.21
2024-04-24T18:50:37.593Z,54.20
2024-04-24T18:52:42.249Z,54.46
2024-04-24T18:54:45.824Z,54.54
2024-04-24T18:56:49.021Z,54.77
2024-04-24T18:58:51.391Z,54.86
2024-04-24T19:00:57.236Z,55.10
2024-04-24T19:03:00.198Z,55.27
2024-04-24T19:05:04.230Z,55.44
2024-04-24T19:07:10.301Z,55.57
2024-04-24T19:09:12.913Z,55.69
2024-04-24T19:11:16.812Z,55.79
2024-04-24T19:13:20.089Z,55.97
2024-04-24T19:15:23.912Z,56.12
2024-04-24T19:17:26.632Z,56.21
2024-04-24T19:19:33.268Z,56.26
2024-04-24T19:21:38.942Z,56.37
2024-04-24T19:23:42.887Z,56.51
2024-04-24T19:25:46.919Z,56.37
2024-04-24T19:27:51.671Z,56.49
2024-04-24T19:29:55.788Z,56.49
2024-04-24T19:32:01.953Z,56.69
2024-04-24T19:34:09.877Z,56.78
2024-04-24T19:36:16.761Z,56.72
2024-04-24T19:38:23.972Z,56.82
2024-04-24T19:40:31.520Z,57.00
2024-04-24T19:42:35.829Z,56.97
2024-04-24T19:44:40.141Z,56.96
2024-04-24T19:46:44.161Z,57.01
2024-04-24T19:48:54.081Z,57.25
2024-04-24T19:50:59.238Z,57.31
2024-04-24T19:53:03.900Z,57.38
2024-04-24T19:55:07.092Z,57.35
2024-04-24T19:57:12.280Z,57.55
2024-04-24T19:59:14.986Z,57.62
2024-04-24T20:01:20.898Z,57.78
2024-04-24T20:03:26.147Z,57.85
2024-04-24T20:05:33.071Z,57.90
2024-04-24T20:07:37.869Z,57.99
2024-04-24T20:09:41.964Z,58.15
2024-04-24T20:11:45.325Z,58.01
2024-04-24T20:13:48.220Z,58.29
2024-04-24T20:15:53.133Z,58.14
2024-04-24T20:17:57.839Z,58.26
2024-04-24T20:20:01.236Z,58.43
2024-04-24T20:22:03.871Z,58.41
2024-04-24T20:24:06.660Z,58.52
2024-04-24T20:26:18.351Z,58.54
2024-04-24T20:28:20.972Z,58.53
2024-04-24T20:30:23.396Z,58.62
2024-04-24T20:32:26.908Z,58.61
2024-04-24T20:34:29.539Z,58.65
2024-04-24T20:36:32.114Z,58.80
2024-04-24T20:38:34.679Z,58.86
2024-04-24T20:40:37.137Z,59.06
2024-04-24T20:42:40.157Z,59.24
2024-04-24T20:44:42.629Z,59.15
2024-04-24T20:46:45.033Z,59.32
2024-04-24T20:48:47.630Z,59.30
2024-04-24T20:50:50.059Z,59.36
2024-04-24T20:52:52.472Z,59.25
2024-04-24T20:54:55.384Z,59.31
2024-04-24T20:56:57.822Z,59.40
2024-04-24T20:59:00.327Z,59.45
2024-04-24T21:01:06.322Z,59.42
2024-04-24T21:03:09.300Z,59.76
2024-04-24T21:05:12.994Z,59.66
2024-04-24T21:07:16.866Z,59.86
2024-04-24T21:09:19.828Z,59.80
2024-04-24T21:11:24.712Z,59.92
2024-04-24T21:13:27.719Z,59.97
2024-04-24T21:15:30.973Z,60.15
2024-04-24T21:17:33.678Z,59.92
2024-04-24T21:19:37.150Z,60.10
2024-04-24T21:23:45.414Z,60.32
2024-04-24T21:25:48.321Z,60.47
2024-04-24T21:27:51.333Z,60.54
2024-04-24T21:29:54.050Z,60.47
2024-04-24T21:31:56.559Z,60.35
2024-04-24T21:33:59.111Z,60.35
2024-04-24T21:36:04.740Z,60.50
2024-04-24T21:38:07.180Z,60.49
2024-04-24T21:40:10.169Z,60.49
2024-04-24T21:42:12.632Z,60.34
2024-04-24T21:44:15.264Z,60.29
2024-04-24T21:46:19.677Z,60.47
2024-04-24T21:48:22.218Z,60.41
2024-04-24T21:50:24.894Z,60.46
2024-04-24T21:52:27.402Z,60.52
2024-04-24T21:54:30.961Z,60.55
2024-04-24T21:56:35.762Z,60.74
2024-04-24T21:58:40.003Z,60.88
2024-04-24T22:00:42.593Z,61.04
2024-04-24T22:02:45.021Z,61.09
2024-04-24T22:04:47.485Z,61.01
2024-04-24T22:06:50.064Z,60.92
2024-04-24T22:08:52.505Z,61.31
2024-04-24T22:10:54.857Z,61.21
2024-04-24T22:13:01.764Z,61.19
2024-04-24T22:15:04.682Z,61.16
2024-04-24T22:17:16.459Z,61.37
2024-04-24T22:19:24.354Z,61.53
2024-04-24T22:21:29.389Z,61.52
2024-04-24T22:23:32.946Z,61.69
2024-04-24T22:25:36.383Z,61.56
2024-04-24T22:27:38.801Z,61.83
2024-04-24T22:29:41.215Z,61.62
2024-04-24T22:31:43.862Z,61.67
2024-04-24T22:33:47.269Z,61.62
2024-04-24T22:35:49.965Z,61.47
2024-04-24T22:37:53.026Z,61.58
2024-04-24T22:39:55.389Z,61.74
2024-04-24T22:41:57.814Z,61.64
2024-04-24T22:44:00.246Z,61.70
2024-04-24T22:46:03.805Z,61.66
2024-04-24T22:48:06.574Z,61.70
2024-04-24T22:50:09.920Z,61.58
2024-04-24T22:52:12.610Z,61.79
2024-04-24T22:54:15.140Z,61.93
2024-04-24T22:56:17.592Z,61.98
2024-04-24T22:58:19.969Z,62.02
2024-04-24T23:00:22.662Z,61.94
2024-04-24T23:02:25.271Z,62.08
2024-04-24T23:04:29.774Z,62.14
2024-04-24T23:06:32.258Z,62.15
2024-04-24T23:08:34.916Z,62.11
2024-04-24T23:10:37.546Z,62.26
2024-04-24T23:12:42.406Z,62.38
2024-04-24T23:14:45.645Z,62.31
2024-04-24T23:16:48.128Z,62.25
2024-04-24T23:18:50.594Z,62.45
2024-04-24T23:20:54.155Z,62.43
2024-04-24T23:22:56.613Z,62.42
2024-04-24T23:24:59.121Z,62.40
2024-04-24T23:27:01.813Z,62.33
2024-04-24T23:29:04.338Z,62.28
2024-04-24T23:31:07.609Z,62.51
2024-04-24T23:33:10.105Z,62.11
2024-04-24T23:35:12.662Z,62.08
2024-04-24T23:37:15.104Z,62.05
2024-04-24T23:39:17.644Z,62.17
2024-04-24T23:41:20.205Z,62.11
2024-04-24T23:43:22.619Z,62.33
2024-04-24T23:45:25.527Z,62.36
2024-04-24T23:47:28.178Z,62.36
2024-04-24T23:49:31.016Z,62.49
2024-04-24T23:51:33.981Z,62.51
2024-04-24T23:53:36.963Z,62.42
2024-04-24T23:55:40.631Z,62.56
2024-04-24T23:57:43.425Z,62.62
2024-04-24T23:59:46.096Z,62.70
